createdAt,value
2023-02-24T00:01:52.505Z,4.10
2023-02-24T00:04:20.705Z,3.70
2023-02-24T00:06:47.852Z,3.40
2023-02-24T00:09:22.307Z,3.60
2023-02-24T00:11:55.037Z,3.50
2023-02-24T00:14:21.940Z,4.30
2023-02-24T00:16:49.050Z,4.00
2023-02-24T00:19:17.836Z,3.80
2023-02-24T00:21:44.778Z,3.60
2023-02-24T00:24:12.610Z,3.60
2023-02-24T00:26:39.517Z,4.10
2023-02-24T00:29:07.931Z,3.90
2023-02-24T00:31:34.987Z,4.00
2023-02-24T00:34:02.553Z,4.00
2023-02-24T00:36:30.140Z,3.80
2023-02-24T00:38:59.193Z,4.30
2023-02-24T00:41:29.384Z,3.40
2023-02-24T00:44:08.766Z,3.40
2023-02-24T00:46:40.349Z,4.20
2023-02-24T00:49:12.791Z,4.20
2023-02-24T00:51:41.625Z,3.30
2023-02-24T00:54:08.639Z,4.30
2023-02-24T00:56:36.096Z,3.60
2023-02-24T00:59:06.412Z,3.60
2023-02-24T01:01:33.520Z,4.10
2023-02-24T01:04:05.753Z,3.90
2023-02-24T01:06:34.240Z,3.80
2023-02-24T01:09:01.164Z,4.20
2023-02-24T01:11:52.239Z,4.10
2023-02-24T01:14:24.293Z,3.60
2023-02-24T01:16:51.106Z,4.00
2023-02-24T01:19:19.384Z,4.10
2023-02-24T01:21:46.950Z,4.10
2023-02-24T01:24:15.609Z,3.70
2023-02-24T01:26:42.921Z,3.70
2023-02-24T01:29:09.843Z,4.30
2023-02-24T01:31:42.621Z,4.10
2023-02-24T01:34:13.015Z,4.00
2023-02-24T01:36:41.357Z,4.20
2023-02-24T01:39:10.983Z,4.10
2023-02-24T01:41:39.312Z,4.30
2023-02-24T01:44:15.754Z,4.30
2023-02-24T01:46:44.875Z,3.80
2023-02-24T01:49:25.052Z,4.40
2023-02-24T01:52:25.541Z,3.80
2023-02-24T01:55:10.395Z,3.70
2023-02-24T01:57:38.835Z,4.10
2023-02-24T02:00:30.403Z,4.00
2023-02-24T02:03:00.827Z,4.60
2023-02-24T02:05:27.901Z,4.10
2023-02-24T02:07:54.843Z,4.30
2023-02-24T02:10:23.355Z,3.90
2023-02-24T02:12:51.302Z,4.40
2023-02-24T02:15:20.704Z,3.70
2023-02-24T02:20:29.108Z,3.50
2023-02-24T02:23:34.261Z,3.60
2023-02-24T02:26:07.513Z,3.50
2023-02-24T02:28:34.855Z,4.40
2023-02-24T02:31:17.109Z,4.60
2023-02-24T02:34:17.370Z,4.20
2023-02-24T02:37:24.798Z,4.20
2023-02-24T02:39:58.829Z,4.70
2023-02-24T02:42:41.038Z,4.40
2023-02-24T02:47:47.101Z,3.60
2023-02-24T02:50:18.875Z,5.00
2023-02-24T02:52:56.706Z,3.80
2023-02-24T02:55:31.883Z,4.80
2023-02-24T02:57:59.428Z,4.30
2023-02-24T03:00:29.352Z,4.80
2023-02-24T03:03:03.369Z,4.40
2023-02-24T03:05:33.218Z,5.60
2023-02-24T03:08:00.758Z,5.30
2023-02-24T03:10:29.480Z,7.30
2023-02-24T03:12:57.792Z,7.90
2023-02-24T03:15:26.420Z,5.10
2023-02-24T03:17:56.251Z,6.60
2023-02-24T03:23:20.397Z,6.00
2023-02-24T03:28:01.823Z,5.70
2023-02-24T03:30:35.577Z,7.30
2023-02-24T03:33:08.507Z,5.70
2023-02-24T03:35:40.117Z,5.40
2023-02-24T03:38:07.044Z,7.50
2023-02-24T03:40:34.637Z,9.90
2023-02-24T03:43:14.926Z,7.50
2023-02-24T03:45:43.887Z,5.60
2023-02-24T03:48:12.174Z,7.40
2023-02-24T03:50:41.162Z,5.90
2023-02-24T03:53:29.409Z,4.70
2023-02-24T03:56:03.314Z,5.00
2023-02-24T03:58:41.973Z,4.20
2023-02-24T04:01:42.252Z,7.00
2023-02-24T04:04:21.618Z,5.40
2023-02-24T04:07:03.594Z,5.70
2023-02-24T04:09:40.080Z,5.20
2023-02-24T04:12:27.049Z,6.30
2023-02-24T04:15:09.234Z,5.50
2023-02-24T04:17:47.184Z,6.10
2023-02-24T04:20:16.779Z,7.70
2023-02-24T04:22:51.781Z,6.00
2023-02-24T04:25:19.914Z,5.40
2023-02-24T04:27:47.560Z,6.30
2023-02-24T04:30:16.641Z,4.90
2023-02-24T04:32:44.361Z,5.00
2023-02-24T04:35:17.099Z,5.70
2023-02-24T04:37:46.977Z,5.30
2023-02-24T04:40:18.721Z,4.50
2023-02-24T04:42:49.374Z,5.00
2023-02-24T04:45:17.865Z,6.10
2023-02-24T04:47:51.493Z,5.40
2023-02-24T04:50:25.688Z,4.90
2023-02-24T04:52:54.302Z,4.10
2023-02-24T04:55:23.591Z,4.30
2023-02-24T04:57:54.035Z,4.90
2023-02-24T05:00:26.639Z,4.30
2023-02-24T05:02:55.522Z,4.10
2023-02-24T05:05:27.712Z,4.50
2023-02-24T05:08:03.706Z,4.70
2023-02-24T05:10:32.060Z,4.80
2023-02-24T05:13:00.808Z,4.20
2023-02-24T05:15:32.522Z,4.40
2023-02-24T05:18:07.778Z,4.80
2023-02-24T05:20:58.818Z,4.40
2023-02-24T05:23:27.947Z,4.90
2023-02-24T05:26:17.653Z,5.10
2023-02-24T05:28:49.372Z,5.40
2023-02-24T05:31:22.008Z,5.80
2023-02-24T05:33:50.130Z,5.30
2023-02-24T05:36:19.247Z,5.00
2023-02-24T05:38:48.028Z,4.40
2023-02-24T05:41:18.991Z,5.30
2023-02-24T05:43:55.626Z,5.90
2023-02-24T05:46:28.993Z,5.70
2023-02-24T05:49:01.317Z,4.20
2023-02-24T05:51:35.822Z,4.40
2023-02-24T05:54:04.824Z,4.60
2023-02-24T05:56:32.834Z,5.10
2023-02-24T05:59:03.536Z,4.90
2023-02-24T06:01:32.209Z,4.30
2023-02-24T06:04:05.863Z,4.20
2023-02-24T06:06:35.305Z,4.40
2023-02-24T06:09:12.712Z,4.80
2023-02-24T06:11:40.800Z,5.50
2023-02-24T06:14:09.730Z,4.80
2023-02-24T06:16:41.850Z,4.80
2023-02-24T06:19:10.792Z,4.70
2023-02-24T06:21:41.337Z,4.70
2023-02-24T06:24:18.629Z,5.10
2023-02-24T06:26:49.432Z,5.20
2023-02-24T06:29:17.456Z,5.80
2023-02-24T06:31:45.038Z,7.50
2023-02-24T06:34:13.227Z,6.50
2023-02-24T06:36:40.215Z,5.60
2023-02-24T06:39:09.384Z,5.50
2023-02-24T06:41:38.033Z,7.90
2023-02-24T06:44:04.998Z,7.10
2023-02-24T06:46:31.981Z,9.20
2023-02-24T06:48:59.407Z,4.70
2023-02-24T06:51:30.357Z,7.20
2023-02-24T06:53:59.743Z,5.50
2023-02-24T06:56:27.285Z,5.70
2023-02-24T06:58:59.075Z,6.40
2023-02-24T07:01:28.473Z,6.40
2023-02-24T07:04:18.058Z,6.30
2023-02-24T07:06:49.492Z,5.40
2023-02-24T07:09:17.221Z,5.30
2023-02-24T07:11:48.418Z,5.20
2023-02-24T07:14:15.452Z,7.00
2023-02-24T07:16:45.707Z,8.70
2023-02-24T07:19:15.638Z,13.70
2023-02-24T07:21:50.196Z,7.40
2023-02-24T07:24:24.969Z,7.90
2023-02-24T07:26:59.298Z,9.20
2023-02-24T07:29:27.116Z,7.20
2023-02-24T07:31:57.347Z,6.00
2023-02-24T07:34:25.235Z,5.70
2023-02-24T07:36:52.755Z,5.40
2023-02-24T07:39:19.748Z,4.60
2023-02-24T07:41:49.797Z,4.70
2023-02-24T07:44:18.188Z,5.40
2023-02-24T07:46:45.530Z,4.50
2023-02-24T07:49:14.969Z,5.60
2023-02-24T07:51:42.504Z,6.40
2023-02-24T07:54:11.481Z,6.70
2023-02-24T07:56:46.376Z,6.70
2023-02-24T07:59:15.941Z,5.90
2023-02-24T08:01:50.033Z,5.20
2023-02-24T08:04:18.743Z,5.90
2023-02-24T08:06:47.939Z,6.00
2023-02-24T08:09:20.834Z,5.90
2023-02-24T08:11:52.286Z,5.60
2023-02-24T08:14:20.949Z,5.50
2023-02-24T08:16:49.070Z,5.70
2023-02-24T08:19:22.969Z,4.40
2023-02-24T08:21:52.989Z,4.50
2023-02-24T08:24:25.346Z,3.70
2023-02-24T08:27:04.607Z,4.70
2023-02-24T08:29:32.126Z,4.10
2023-02-24T08:31:59.939Z,4.90
2023-02-24T08:34:31.994Z,6.00
2023-02-24T08:36:58.909Z,5.40
2023-02-24T08:39:30.331Z,8.20
2023-02-24T08:41:58.181Z,5.30
2023-02-24T08:44:27.160Z,5.30
2023-02-24T08:46:57.859Z,6.00
2023-02-24T08:49:28.752Z,5.40
2023-02-24T08:52:02.274Z,5.90
2023-02-24T08:54:32.362Z,4.80
2023-02-24T08:57:08.217Z,6.60
2023-02-24T08:59:41.428Z,5.90
2023-02-24T09:02:23.557Z,7.60
2023-02-24T09:05:00.863Z,7.30
2023-02-24T09:07:35.739Z,5.30
2023-02-24T09:10:18.018Z,5.60
2023-02-24T09:12:45.697Z,4.90
2023-02-24T09:15:15.413Z,5.10
2023-02-24T09:17:47.537Z,5.10
2023-02-24T09:20:54.981Z,5.60
2023-02-24T09:23:30.115Z,8.10
2023-02-24T09:25:57.545Z,6.50
2023-02-24T09:28:25.926Z,5.50
2023-02-24T09:30:55.587Z,5.00
2023-02-24T09:33:38.988Z,5.50
2023-02-24T09:36:20.508Z,5.00
2023-02-24T09:39:00.237Z,5.80
2023-02-24T09:42:02.617Z,6.50
2023-02-24T09:44:39.766Z,8.10
2023-02-24T09:47:31.570Z,7.40
2023-02-24T09:50:06.265Z,5.60
2023-02-24T09:52:43.140Z,5.30
2023-02-24T10:02:46.432Z,5.10
2023-02-24T10:05:34.252Z,5.90
2023-02-24T10:08:01.968Z,5.10
2023-02-24T10:10:30.693Z,5.10
2023-02-24T10:13:15.319Z,5.00
2023-02-24T10:16:06.995Z,3.80
2023-02-24T10:19:01.530Z,3.80
2023-02-24T10:22:00.395Z,4.40
2023-02-24T10:24:48.533Z,3.80
2023-02-24T10:27:25.113Z,3.80
2023-02-24T10:30:20.103Z,4.80
2023-02-24T10:32:59.107Z,3.90
2023-02-24T10:35:34.033Z,4.80
2023-02-24T10:38:07.980Z,4.70
2023-02-24T10:40:57.573Z,4.70
2023-02-24T10:43:30.364Z,3.90
2023-02-24T10:46:17.587Z,3.90
2023-02-24T10:48:53.024Z,4.40
2023-02-24T10:51:22.308Z,4.30
2023-02-24T10:54:10.012Z,5.00
2023-02-24T10:56:44.872Z,4.30
2023-02-24T10:59:42.509Z,4.20
2023-02-24T11:02:29.810Z,4.30
2023-02-24T11:05:03.060Z,4.00
2023-02-24T11:07:44.161Z,4.70
2023-02-24T11:13:13.927Z,4.90
2023-02-24T11:16:05.695Z,5.50
2023-02-24T11:18:35.013Z,5.10
2023-02-24T11:21:02.190Z,5.00
2023-02-24T11:23:35.222Z,4.50
2023-02-24T11:26:07.215Z,4.40
2023-02-24T11:28:50.854Z,4.40
2023-02-24T11:31:45.666Z,4.10
2023-02-24T11:34:42.314Z,4.20
2023-02-24T11:37:14.603Z,5.10
2023-02-24T11:39:59.679Z,4.50
2023-02-24T11:42:32.276Z,4.50
2023-02-24T11:52:41.733Z,5.30
2023-02-24T11:55:16.419Z,4.50
2023-02-24T11:57:46.646Z,4.60
2023-02-24T12:00:20.340Z,4.70
2023-02-24T12:02:47.389Z,4.40
2023-02-24T12:05:25.262Z,4.80
2023-02-24T12:08:02.432Z,4.60
2023-02-24T12:10:34.684Z,4.60
2023-02-24T12:13:08.943Z,4.10
2023-02-24T12:15:41.130Z,3.80
2023-02-24T12:18:23.560Z,4.00
2023-02-24T12:23:39.493Z,4.90
2023-02-24T12:34:00.987Z,5.20
2023-02-24T12:36:31.478Z,4.70
2023-02-24T12:39:10.800Z,4.20
2023-02-24T12:41:59.424Z,4.80
2023-02-24T12:44:39.429Z,4.70
2023-02-24T12:47:14.397Z,5.50
2023-02-24T12:49:47.984Z,4.60
2023-02-24T12:52:40.235Z,4.80
2023-02-24T12:55:15.779Z,6.10
2023-02-24T12:57:52.895Z,4.70
2023-02-24T13:00:47.990Z,4.70
2023-02-24T13:03:47.408Z,6.40
2023-02-24T13:06:15.500Z,4.80
2023-02-24T13:09:03.708Z,4.30
2023-02-24T13:11:48.951Z,4.50
2023-02-24T13:14:35.893Z,3.50
2023-02-24T13:17:06.852Z,4.60
2023-02-24T13:19:34.111Z,4.70
2023-02-24T13:22:08.941Z,4.60
2023-02-24T13:24:36.333Z,5.00
2023-02-24T13:27:29.289Z,6.10
2023-02-24T13:30:01.585Z,5.10
2023-02-24T13:32:34.865Z,5.00
2023-02-24T13:35:16.212Z,5.90
2023-02-24T13:37:47.586Z,5.40
2023-02-24T13:40:24.264Z,5.10
2023-02-24T13:42:57.851Z,5.80
2023-02-24T13:45:26.554Z,4.50
2023-02-24T13:48:16.181Z,4.80
2023-02-24T13:53:43.639Z,3.80
2023-02-24T13:56:34.196Z,4.00
2023-02-24T13:59:23.055Z,5.00
2023-02-24T14:01:56.624Z,5.10
2023-02-24T14:04:29.662Z,5.80
2023-02-24T14:07:00.574Z,6.00
2023-02-24T14:09:36.696Z,8.40
2023-02-24T14:12:24.755Z,7.60
2023-02-24T14:14:52.013Z,7.70
2023-02-24T14:17:20.996Z,6.40
2023-02-24T14:19:47.930Z,6.70
2023-02-24T14:22:22.824Z,5.90
2023-02-24T14:24:50.143Z,6.00
2023-02-24T14:27:26.402Z,5.00
2023-02-24T14:29:53.330Z,5.00
2023-02-24T14:32:22.386Z,5.10
2023-02-24T14:34:49.691Z,4.30
2023-02-24T14:37:24.093Z,6.20
2023-02-24T14:39:58.634Z,5.50
2023-02-24T14:42:26.659Z,4.90
2023-02-24T14:44:55.284Z,4.90
2023-02-24T14:47:24.580Z,5.50
2023-02-24T14:49:56.463Z,5.20
2023-02-24T14:52:44.893Z,4.90
2023-02-24T14:55:17.540Z,4.90
2023-02-24T14:57:57.177Z,4.40
2023-02-24T15:00:57.669Z,5.20
2023-02-24T15:03:30.201Z,4.80
2023-02-24T15:05:59.519Z,4.80
2023-02-24T15:08:50.107Z,4.30
2023-02-24T15:11:22.599Z,5.70
2023-02-24T15:13:53.469Z,5.50
2023-02-24T15:16:29.865Z,5.40
2023-02-24T15:19:00.622Z,6.70
2023-02-24T15:21:33.030Z,6.20
2023-02-24T15:24:13.759Z,5.80
2023-02-24T15:26:41.011Z,5.10
2023-02-24T15:29:19.492Z,5.40
2023-02-24T15:31:48.054Z,6.40
2023-02-24T15:34:27.998Z,8.90
2023-02-24T15:36:58.320Z,5.80
2023-02-24T15:39:28.001Z,6.70
2023-02-24T15:42:29.229Z,6.20
2023-02-24T15:45:00.791Z,6.00
2023-02-24T15:47:41.137Z,7.80
2023-02-24T15:50:12.698Z,6.80
2023-02-24T15:52:40.999Z,5.60
2023-02-24T15:55:19.580Z,6.40
2023-02-24T15:57:47.168Z,6.50
2023-02-24T16:07:54.978Z,9.70
2023-02-24T16:10:27.716Z,9.20
2023-02-24T16:13:00.375Z,8.10
2023-02-24T16:15:39.390Z,10.40
2023-02-24T16:18:12.529Z,6.70
2023-02-24T16:20:41.066Z,7.60
2023-02-24T16:23:08.016Z,7.20
2023-02-24T16:25:38.848Z,7.40
2023-02-24T16:28:06.691Z,7.50
2023-02-24T16:30:35.603Z,6.50
2023-02-24T16:33:03.073Z,9.00
2023-02-24T16:35:30.306Z,6.00
2023-02-24T16:37:57.989Z,7.60
2023-02-24T16:40:30.197Z,7.50
2023-02-24T16:42:57.488Z,7.00
2023-02-24T16:45:29.017Z,9.00
2023-02-24T16:47:57.193Z,7.80
2023-02-24T16:50:31.076Z,8.30
2023-02-24T16:52:59.924Z,5.80
2023-02-24T16:55:27.361Z,5.00
2023-02-24T16:57:54.074Z,6.10
2023-02-24T17:00:23.882Z,6.90
2023-02-24T17:02:51.143Z,9.20
2023-02-24T17:05:19.562Z,7.20
2023-02-24T17:07:48.434Z,6.80
2023-02-24T17:10:22.224Z,7.00
2023-02-24T17:12:49.512Z,6.40
2023-02-24T17:15:21.541Z,6.20
2023-02-24T17:17:49.452Z,6.70
2023-02-24T17:20:18.423Z,8.60
2023-02-24T17:22:45.884Z,7.00
2023-02-24T17:25:27.266Z,9.20
2023-02-24T17:27:54.612Z,6.60
2023-02-24T17:30:33.491Z,6.80
2023-02-24T17:33:00.678Z,6.00
2023-02-24T17:35:27.951Z,5.40
2023-02-24T17:37:55.518Z,4.50
2023-02-24T17:40:23.093Z,6.20
2023-02-24T17:42:49.909Z,5.30
2023-02-24T17:45:16.869Z,6.60
2023-02-24T17:47:44.497Z,6.00
2023-02-24T17:50:12.106Z,5.50
2023-02-24T17:52:39.415Z,5.50
2023-02-24T17:55:07.483Z,6.00
2023-02-24T17:57:37.016Z,6.00
2023-02-24T18:00:05.022Z,5.60
2023-02-24T18:02:39.688Z,6.40
2023-02-24T18:05:07.137Z,6.50
2023-02-24T18:07:38.453Z,6.00
2023-02-24T18:10:06.863Z,5.30
2023-02-24T18:12:34.104Z,4.90
2023-02-24T18:15:08.710Z,5.70
2023-02-24T18:17:38.062Z,5.70
2023-02-24T18:20:06.106Z,5.80
2023-02-24T18:22:33.140Z,6.70
2023-02-24T18:25:01.143Z,7.50
2023-02-24T18:27:28.002Z,9.90
2023-02-24T18:29:57.064Z,9.70
2023-02-24T18:32:24.428Z,10.50
2023-02-24T18:34:51.385Z,10.10
2023-02-24T18:37:18.459Z,9.80
2023-02-24T18:39:45.854Z,11.00
2023-02-24T18:42:12.616Z,10.50
2023-02-24T18:44:39.738Z,10.70
2023-02-24T18:47:09.859Z,6.50
2023-02-24T18:49:37.590Z,6.00
2023-02-24T18:52:05.479Z,8.60
2023-02-24T18:54:34.243Z,11.00
2023-02-24T18:57:01.920Z,6.90
2023-02-24T18:59:29.506Z,5.60
2023-02-24T19:01:57.192Z,7.40
2023-02-24T19:04:24.278Z,9.30
2023-02-24T19:06:52.417Z,8.30
2023-02-24T19:09:22.334Z,4.90
2023-02-24T19:11:50.904Z,6.80
2023-02-24T19:14:17.757Z,5.70
2023-02-24T19:16:45.395Z,6.10
2023-02-24T19:19:16.002Z,5.50
2023-02-24T19:21:45.491Z,5.70
2023-02-24T19:26:42.741Z,5.60
2023-02-24T19:29:10.183Z,4.90
2023-02-24T19:31:38.488Z,5.90
2023-02-24T19:34:07.450Z,7.20
2023-02-24T19:36:35.636Z,6.70
2023-02-24T19:39:02.904Z,7.30
2023-02-24T19:41:30.465Z,7.00
2023-02-24T19:43:57.843Z,7.10
2023-02-24T19:46:25.385Z,8.70
2023-02-24T19:48:52.505Z,7.40
2023-02-24T19:51:24.276Z,7.80
2023-02-24T19:53:53.009Z,11.20
2023-02-24T19:56:30.272Z,8.90
2023-02-24T19:58:58.047Z,7.40
2023-02-24T20:01:25.572Z,6.50
2023-02-24T20:03:54.842Z,6.80
2023-02-24T20:06:27.008Z,6.60
2023-02-24T20:08:54.665Z,6.30
2023-02-24T20:11:21.908Z,6.30
2023-02-24T20:13:51.859Z,6.10
2023-02-24T20:16:20.438Z,8.10
2023-02-24T20:18:48.323Z,7.20
2023-02-24T20:21:15.876Z,6.60
2023-02-24T20:23:43.021Z,8.10
2023-02-24T20:26:10.928Z,10.60
2023-02-24T20:28:38.622Z,7.00
2023-02-24T20:31:08.366Z,6.60
2023-02-24T20:33:35.601Z,7.10
2023-02-24T20:36:13.141Z,6.30
2023-02-24T20:38:41.964Z,6.90
2023-02-24T20:41:08.734Z,6.50
2023-02-24T20:43:36.114Z,6.80
2023-02-24T20:46:17.729Z,6.50
2023-02-24T20:48:46.017Z,5.20
2023-02-24T20:51:13.150Z,5.60
2023-02-24T20:53:55.961Z,5.20
2023-02-24T20:56:24.283Z,5.90
2023-02-24T20:58:53.480Z,6.10
2023-02-24T21:01:20.774Z,5.70
2023-02-24T21:03:50.937Z,5.70
2023-02-24T21:06:18.288Z,5.80
2023-02-24T21:08:45.351Z,6.10
2023-02-24T21:11:13.060Z,5.90
2023-02-24T21:13:44.781Z,6.00
2023-02-24T21:16:12.302Z,6.00
2023-02-24T21:18:40.780Z,6.60
2023-02-24T21:21:07.821Z,6.00
2023-02-24T21:23:37.728Z,6.30
2023-02-24T21:26:05.869Z,6.40
2023-02-24T21:28:32.761Z,5.90
2023-02-24T21:30:59.538Z,5.10
2023-02-24T21:33:27.638Z,4.40
2023-02-24T21:35:59.365Z,5.00
2023-02-24T21:38:26.759Z,5.20
2023-02-24T21:41:03.192Z,5.10
2023-02-24T21:43:31.154Z,4.80
2023-02-24T21:46:05.591Z,5.70
2023-02-24T21:48:33.740Z,6.10
2023-02-24T21:51:08.910Z,4.80
2023-02-24T21:53:39.322Z,5.40
2023-02-24T21:56:17.482Z,5.80
2023-02-24T21:58:53.635Z,5.30
2023-02-24T22:01:25.807Z,5.40
2023-02-24T22:03:56.669Z,5.20
2023-02-24T22:06:27.050Z,5.00
2023-02-24T22:08:57.368Z,5.40
2023-02-24T22:11:25.093Z,5.70
2023-02-24T22:13:51.843Z,4.90
2023-02-24T22:16:21.636Z,4.60
2023-02-24T22:18:49.088Z,4.00
2023-02-24T22:21:17.409Z,4.10
2023-02-24T22:23:48.505Z,4.90
2023-02-24T22:26:15.365Z,4.90
2023-02-24T22:28:43.132Z,4.70
2023-02-24T22:31:11.464Z,4.70
2023-02-24T22:33:42.702Z,4.70
2023-02-24T22:36:12.462Z,4.80
2023-02-24T22:38:41.432Z,4.60
2023-02-24T22:41:12.925Z,4.30
2023-02-24T22:43:39.934Z,5.20
2023-02-24T22:46:12.635Z,5.10
2023-02-24T22:48:39.442Z,5.20
2023-02-24T22:51:07.566Z,5.40
2023-02-24T22:53:38.942Z,4.40
2023-02-24T22:58:33.728Z,4.00
2023-02-24T23:01:00.687Z,4.70
2023-02-24T23:03:30.645Z,5.00
2023-02-24T23:06:06.668Z,4.90
2023-02-24T23:08:34.984Z,4.40
2023-02-24T23:11:08.165Z,4.70
2023-02-24T23:13:35.495Z,5.20
2023-02-24T23:16:03.528Z,5.70
2023-02-24T23:18:32.185Z,5.00
2023-02-24T23:21:00.115Z,5.20
2023-02-24T23:23:29.717Z,5.10
2023-02-24T23:25:57.278Z,4.70
2023-02-24T23:28:28.952Z,6.30
2023-02-24T23:30:56.376Z,4.50
2023-02-24T23:33:23.430Z,4.40
2023-02-24T23:35:50.309Z,4.30
2023-02-24T23:38:17.146Z,4.80
2023-02-24T23:40:50.054Z,4.70
2023-02-24T23:43:17.946Z,4.90
2023-02-24T23:45:44.744Z,4.70
2023-02-24T23:48:12.526Z,5.20
2023-02-24T23:50:41.058Z,4.80
2023-02-24T23:53:08.937Z,5.20
2023-02-24T23:55:35.874Z,5.30
2023-02-24T23:58:03.461Z,5.20
